Atwater, IL

7:14 AM CDT on August 20, 2014 (GMT -0500)
KILHARVE2 | Change Station
CLOSE
Current Station
Personal Weather Station
Location: Harvel, IL
Elevation: 650 ft
Nearby Weather Stations

Elev 650 ft 39.42 °N, 89.57 °W | Updated 4 minutes ago

Clear
Clear
71.0 °F
Feels Like 71.0 °F
N
0.0
Wind Variable Wind from WSW
Gusts 0.0 mph

Today
High -- | Low -- °F
--% Chance of Precip.
Yesterday
High -- | Low -- °F
Precip. -- in
6:15 AM 7:47 PM
Waning Crescent, 22% visible
Pressure 29.90 in
Visibility 2.5 miles
Clouds Clear
Dew Point 70 °F
Humidity 98%
Rainfall 0.07 in
Snow Depth Not available.
UV 0.0 out of 12
Pollen 9.60 out of 12
Air Quality Not available.
Flu Activity Not available.
METAR K3LF 201155Z AUTO 00000KT 2 1/2SM VCTS BR CLR 21/21 A2990 RMK AO2 LTG DSNT

More Conditions Fewer Conditions

Pressure 29.90 in
Visibility 2.5 miles
Clouds Clear
Dew Point 70 °F
Humidity 98%
Rainfall 0.07 in
Snow Depth Not available.
UV 0.0 out of 12
Pollen 9.60 out of 12
Air Quality Not available.
Flu Activity Not available.
METAR K3LF 201155Z AUTO 00000KT 2 1/2SM VCTS BR CLR 21/21 A2990 RMK AO2 LTG DSNT

More Conditions Fewer Conditions

10-Day Weather Forecast

Almanac

Astronomy

Aug. 20, 2014 Rise Set
Actual Time 6:15 AM CDT 7:47 PM CDT
Civil Twilight 5:47 AM CDT 8:15 PM CDT
Nautical Twilight 5:13 AM CDT 8:49 PM CDT
Astronomical Twilight 4:37 AM CDT 9:25 PM CDT
Moon 1:56 AM CDT 4:31 PM CDT
Length of Visible Light 14h 27m
Length of Day
13h 31m
Tomorrow will be 2m 20s shorter.
Waning Crescent, 22% of the Moon is Illuminated
Today
Waning Crescent
Aug 25
New
Sep 2
First Quarter
Sep 8
Full
Sep 15
Last Quarter

Today's Extremes

State Highs State Lows

Community

WunderPhotos

Upload Photos

1,745,617 photos uploaded!

WunderBlogs® & News

By Dr. Jeff Masters
Director of Meteorology, Weather Underground
By Kari Strenfel
Meteorologist, Weather Underground
By Christopher C. Burt
Weather Historian, Weather Underground
August 20, 2014
August 20, 2014
August 20, 2014

Nearby

Snow Depth

Station Depth Elevation
No new snow has been reported.

Earthquake Activity

City Distance Mag. Time & Date
No recent earthquake activity has been reported nearby.
Minimum magnitude displayed is 2.5.

Coastal Water Temperatures

Place Temperature
No Stations Reporting

Nearby Weather Stations